sensor_id;sensor_type;location;lat;lon;timestamp;temperature;humidity
40323;DHT22;26030;51.164;17.100;2022-11-15T00:05:02;21.50;64.60
40323;DHT22;26030;51.164;17.100;2022-11-15T00:10:25;21.70;64.00
40323;DHT22;26030;51.164;17.100;2022-11-15T00:15:47;21.80;63.50
40323;DHT22;26030;51.164;17.100;2022-11-15T00:21:10;21.90;63.20
40323;DHT22;26030;51.164;17.100;2022-11-15T00:26:34;22.00;62.80
40323;DHT22;26030;51.164;17.100;2022-11-15T00:31:56;22.20;62.40
40323;DHT22;26030;51.164;17.100;2022-11-15T00:37:19;22.30;62.20
40323;DHT22;26030;51.164;17.100;2022-11-15T00:42:41;22.30;62.30
40323;DHT22;26030;51.164;17.100;2022-11-15T00:48:04;22.30;61.80
40323;DHT22;26030;51.164;17.100;2022-11-15T00:59:46;22.50;61.30
40323;DHT22;26030;51.164;17.100;2022-11-15T01:05:08;22.50;61.20
40323;DHT22;26030;51.164;17.100;2022-11-15T01:10:31;22.50;61.10
40323;DHT22;26030;51.164;17.100;2022-11-15T01:15:53;22.60;61.10
40323;DHT22;26030;51.164;17.100;2022-11-15T01:21:17;22.60;61.00
40323;DHT22;26030;51.164;17.100;2022-11-15T01:26:40;22.60;60.80
40323;DHT22;26030;51.164;17.100;2022-11-15T01:32:03;22.70;60.80
40323;DHT22;26030;51.164;17.100;2022-11-15T01:37:26;22.60;60.60
40323;DHT22;26030;51.164;17.100;2022-11-15T01:42:48;22.60;60.80
40323;DHT22;26030;51.164;17.100;2022-11-15T01:48:11;22.50;61.10
40323;DHT22;26030;51.164;17.100;2022-11-15T01:53:34;22.40;61.70
40323;DHT22;26030;51.164;17.100;2022-11-15T01:58:59;22.30;61.80
40323;DHT22;26030;51.164;17.100;2022-11-15T02:04:26;22.20;62.00
40323;DHT22;26030;51.164;17.100;2022-11-15T02:09:52;22.10;62.10
40323;DHT22;26030;51.164;17.100;2022-11-15T02:15:17;22.00;62.40
40323;DHT22;26030;51.164;17.100;2022-11-15T02:20:45;21.90;62.60
40323;DHT22;26030;51.164;17.100;2022-11-15T02:32:33;21.70;62.90
40323;DHT22;26030;51.164;17.100;2022-11-15T02:38:06;21.70;63.10
40323;DHT22;26030;51.164;17.100;2022-11-15T02:49:19;21.50;63.20
40323;DHT22;26030;51.164;17.100;2022-11-15T02:54:41;21.50;63.40
40323;DHT22;26030;51.164;17.100;2022-11-15T03:00:05;21.40;63.40
40323;DHT22;26030;51.164;17.100;2022-11-15T03:11:15;21.30;63.30
40323;DHT22;26030;51.164;17.100;2022-11-15T03:16:58;21.30;63.60
40323;DHT22;26030;51.164;17.100;2022-11-15T03:22:29;21.30;63.80
40323;DHT22;26030;51.164;17.100;2022-11-15T03:27:58;21.30;64.10
40323;DHT22;26030;51.164;17.100;2022-11-15T03:33:24;21.20;64.20
40323;DHT22;26030;51.164;17.100;2022-11-15T03:38:49;21.20;64.40
40323;DHT22;26030;51.164;17.100;2022-11-15T03:49:56;21.20;64.90
40323;DHT22;26030;51.164;17.100;2022-11-15T03:55:24;21.10;65.00
40323;DHT22;26030;51.164;17.100;2022-11-15T04:00:46;21.10;65.20
40323;DHT22;26030;51.164;17.100;2022-11-15T04:06:10;21.10;65.40
40323;DHT22;26030;51.164;17.100;2022-11-15T04:11:35;21.00;65.50
40323;DHT22;26030;51.164;17.100;2022-11-15T04:16:58;21.00;65.70
40323;DHT22;26030;51.164;17.100;2022-11-15T04:22:21;21.00;65.90
40323;DHT22;26030;51.164;17.100;2022-11-15T04:28:03;21.00;65.90
40323;DHT22;26030;51.164;17.100;2022-11-15T04:33:26;20.90;66.20
40323;DHT22;26030;51.164;17.100;2022-11-15T04:38:48;20.90;66.00
40323;DHT22;26030;51.164;17.100;2022-11-15T04:44:10;20.90;65.80
40323;DHT22;26030;51.164;17.100;2022-11-15T04:49:33;20.90;65.80
40323;DHT22;26030;51.164;17.100;2022-11-15T04:54:55;20.90;65.60
40323;DHT22;26030;51.164;17.100;2022-11-15T05:00:17;20.80;65.50
40323;DHT22;26030;51.164;17.100;2022-11-15T05:05:40;20.70;65.30
40323;DHT22;26030;51.164;17.100;2022-11-15T05:11:04;20.70;65.40
40323;DHT22;26030;51.164;17.100;2022-11-15T05:16:29;20.70;65.40
40323;DHT22;26030;51.164;17.100;2022-11-15T05:21:52;20.60;65.40
40323;DHT22;26030;51.164;17.100;2022-11-15T05:27:14;20.60;65.60
40323;DHT22;26030;51.164;17.100;2022-11-15T05:32:37;20.60;65.40
40323;DHT22;26030;51.164;17.100;2022-11-15T05:37:59;20.60;65.50
40323;DHT22;26030;51.164;17.100;2022-11-15T05:43:22;20.80;65.50
40323;DHT22;26030;51.164;17.100;2022-11-15T05:48:46;21.20;64.10
40323;DHT22;26030;51.164;17.100;2022-11-15T05:54:14;21.50;63.40
40323;DHT22;26030;51.164;17.100;2022-11-15T05:59:38;21.70;62.50
40323;DHT22;26030;51.164;17.100;2022-11-15T06:05:02;21.90;62.40
40323;DHT22;26030;51.164;17.100;2022-11-15T06:10:29;22.00;61.90
40323;DHT22;26030;51.164;17.100;2022-11-15T06:15:55;22.10;61.40
40323;DHT22;26030;51.164;17.100;2022-11-15T06:21:24;22.20;61.40
40323;DHT22;26030;51.164;17.100;2022-11-15T06:26:56;22.20;60.90
40323;DHT22;26030;51.164;17.100;2022-11-15T06:32:22;22.30;60.80
40323;DHT22;26030;51.164;17.100;2022-11-15T06:37:44;22.30;60.60
40323;DHT22;26030;51.164;17.100;2022-11-15T06:43:08;22.40;60.50
40323;DHT22;26030;51.164;17.100;2022-11-15T06:48:31;22.40;60.70
40323;DHT22;26030;51.164;17.100;2022-11-15T06:53:54;22.50;61.40
40323;DHT22;26030;51.164;17.100;2022-11-15T06:59:16;22.40;60.90
40323;DHT22;26030;51.164;17.100;2022-11-15T07:04:39;22.30;61.40
40323;DHT22;26030;51.164;17.100;2022-11-15T07:10:05;22.30;61.80
40323;DHT22;26030;51.164;17.100;2022-11-15T07:15:31;22.30;61.80
40323;DHT22;26030;51.164;17.100;2022-11-15T07:21:05;22.30;61.90
40323;DHT22;26030;51.164;17.100;2022-11-15T07:26:46;22.20;62.20
40323;DHT22;26030;51.164;17.100;2022-11-15T07:32:12;22.30;63.90
40323;DHT22;26030;51.164;17.100;2022-11-15T07:37:38;22.20;62.60
40323;DHT22;26030;51.164;17.100;2022-11-15T07:43:02;22.10;63.10
40323;DHT22;26030;51.164;17.100;2022-11-15T07:48:29;22.00;63.50
40323;DHT22;26030;51.164;17.100;2022-11-15T07:54:04;22.00;63.70
40323;DHT22;26030;51.164;17.100;2022-11-15T07:59:27;21.80;63.90
40323;DHT22;26030;51.164;17.100;2022-11-15T08:05:01;21.90;63.50
40323;DHT22;26030;51.164;17.100;2022-11-15T08:10:24;21.90;63.30
40323;DHT22;26030;51.164;17.100;2022-11-15T08:15:51;21.80;63.30
40323;DHT22;26030;51.164;17.100;2022-11-15T08:21:19;21.80;63.70
40323;DHT22;26030;51.164;17.100;2022-11-15T08:26:43;21.70;64.10
40323;DHT22;26030;51.164;17.100;2022-11-15T08:32:15;21.70;64.30
40323;DHT22;26030;51.164;17.100;2022-11-15T08:37:49;21.70;63.90
40323;DHT22;26030;51.164;17.100;2022-11-15T08:43:14;21.70;63.90
40323;DHT22;26030;51.164;17.100;2022-11-15T08:48:39;21.70;63.80
40323;DHT22;26030;51.164;17.100;2022-11-15T08:54:02;21.70;63.60
40323;DHT22;26030;51.164;17.100;2022-11-15T08:59:26;21.80;63.70
40323;DHT22;26030;51.164;17.100;2022-11-15T09:04:49;21.80;63.60
40323;DHT22;26030;51.164;17.100;2022-11-15T09:10:11;21.80;63.50
40323;DHT22;26030;51.164;17.100;2022-11-15T09:15:34;21.80;63.50
40323;DHT22;26030;51.164;17.100;2022-11-15T09:20:57;21.80;63.20
40323;DHT22;26030;51.164;17.100;2022-11-15T09:26:23;21.90;66.00
40323;DHT22;26030;51.164;17.100;2022-11-15T09:31:51;21.90;66.20
40323;DHT22;26030;51.164;17.100;2022-11-15T09:37:15;21.90;65.10
40323;DHT22;26030;51.164;17.100;2022-11-15T09:42:47;22.00;64.80
40323;DHT22;26030;51.164;17.100;2022-11-15T09:54:11;22.00;64.80
40323;DHT22;26030;51.164;17.100;2022-11-15T10:05:24;22.00;65.00
40323;DHT22;26030;51.164;17.100;2022-11-15T10:10:31;22.00;65.10
40323;DHT22;26030;51.164;17.100;2022-11-15T10:15:43;22.10;65.10
40323;DHT22;26030;51.164;17.100;2022-11-15T10:20:55;22.20;65.00
40323;DHT22;26030;51.164;17.100;2022-11-15T10:26:04;22.30;65.40
40323;DHT22;26030;51.164;17.100;2022-11-15T10:31:24;22.30;65.30
40323;DHT22;26030;51.164;17.100;2022-11-15T10:36:28;22.30;65.30
40323;DHT22;26030;51.164;17.100;2022-11-15T10:41:35;22.40;65.10
40323;DHT22;26030;51.164;17.100;2022-11-15T10:46:45;22.40;65.00
40323;DHT22;26030;51.164;17.100;2022-11-15T10:51:53;22.40;64.90
40323;DHT22;26030;51.164;17.100;2022-11-15T10:57:00;22.50;65.50
40323;DHT22;26030;51.164;17.100;2022-11-15T11:07:36;22.40;64.90
40323;DHT22;26030;51.164;17.100;2022-11-15T11:12:43;22.50;64.90
40323;DHT22;26030;51.164;17.100;2022-11-15T11:39:23;22.60;65.10
40323;DHT22;26030;51.164;17.100;2022-11-15T11:55:34;22.60;65.20
40323;DHT22;26030;51.164;17.100;2022-11-15T12:00:52;22.60;65.10
40323;DHT22;26030;51.164;17.100;2022-11-15T12:06:00;22.60;65.10
40323;DHT22;26030;51.164;17.100;2022-11-15T12:16:29;22.60;65.40
40323;DHT22;26030;51.164;17.100;2022-11-15T12:26:46;22.60;64.90
40323;DHT22;26030;51.164;17.100;2022-11-15T12:31:55;22.60;64.70
40323;DHT22;26030;51.164;17.100;2022-11-15T12:37:32;22.60;64.70
40323;DHT22;26030;51.164;17.100;2022-11-15T12:53:38;22.60;64.60
40323;DHT22;26030;51.164;17.100;2022-11-15T13:14:42;22.60;64.60
40323;DHT22;26030;51.164;17.100;2022-11-15T13:19:52;22.60;64.50
40323;DHT22;26030;51.164;17.100;2022-11-15T13:24:59;22.60;64.60
40323;DHT22;26030;51.164;17.100;2022-11-15T13:30:12;22.50;64.60
40323;DHT22;26030;51.164;17.100;2022-11-15T13:35:23;22.50;64.60
40323;DHT22;26030;51.164;17.100;2022-11-15T13:40:29;22.40;64.70
40323;DHT22;26030;51.164;17.100;2022-11-15T13:45:42;22.40;65.40
40323;DHT22;26030;51.164;17.100;2022-11-15T13:50:51;22.30;64.90
40323;DHT22;26030;51.164;17.100;2022-11-15T13:56:01;22.30;65.00
40323;DHT22;26030;51.164;17.100;2022-11-15T14:01:15;22.20;65.00
40323;DHT22;26030;51.164;17.100;2022-11-15T14:06:29;22.20;65.10
40323;DHT22;26030;51.164;17.100;2022-11-15T14:11:37;22.10;65.30
40323;DHT22;26030;51.164;17.100;2022-11-15T14:17:01;22.00;65.70
40323;DHT22;26030;51.164;17.100;2022-11-15T14:22:21;22.00;65.90
40323;DHT22;26030;51.164;17.100;2022-11-15T14:33:33;21.90;65.50
40323;DHT22;26030;51.164;17.100;2022-11-15T14:38:58;21.90;65.50
40323;DHT22;26030;51.164;17.100;2022-11-15T14:44:09;21.90;65.60
40323;DHT22;26030;51.164;17.100;2022-11-15T14:49:25;21.80;65.90
40323;DHT22;26030;51.164;17.100;2022-11-15T14:54:32;21.80;65.70
40323;DHT22;26030;51.164;17.100;2022-11-15T14:59:38;21.70;65.60
40323;DHT22;26030;51.164;17.100;2022-11-15T15:04:51;21.70;65.70
40323;DHT22;26030;51.164;17.100;2022-11-15T15:10:03;21.60;65.70
40323;DHT22;26030;51.164;17.100;2022-11-15T15:15:36;21.60;65.80
40323;DHT22;26030;51.164;17.100;2022-11-15T15:20:45;21.60;65.90
40323;DHT22;26030;51.164;17.100;2022-11-15T15:25:57;21.60;66.30
40323;DHT22;26030;51.164;17.100;2022-11-15T15:31:11;21.50;65.90
40323;DHT22;26030;51.164;17.100;2022-11-15T15:36:25;21.50;65.90
40323;DHT22;26030;51.164;17.100;2022-11-15T15:41:42;21.50;66.00
40323;DHT22;26030;51.164;17.100;2022-11-15T15:47:12;21.40;66.10
40323;DHT22;26030;51.164;17.100;2022-11-15T15:52:23;21.40;66.10
40323;DHT22;26030;51.164;17.100;2022-11-15T15:57:43;21.40;66.10
40323;DHT22;26030;51.164;17.100;2022-11-15T16:02:54;21.40;66.40
40323;DHT22;26030;51.164;17.100;2022-11-15T16:08:01;21.30;66.00
40323;DHT22;26030;51.164;17.100;2022-11-15T16:13:06;21.30;65.60
40323;DHT22;26030;51.164;17.100;2022-11-15T16:18:19;21.40;66.00
40323;DHT22;26030;51.164;17.100;2022-11-15T16:23:26;21.30;66.00
40323;DHT22;26030;51.164;17.100;2022-11-15T16:28:36;21.30;66.20
40323;DHT22;26030;51.164;17.100;2022-11-15T16:33:49;21.30;66.50
40323;DHT22;26030;51.164;17.100;2022-11-15T16:39:10;21.30;67.40
40323;DHT22;26030;51.164;17.100;2022-11-15T16:44:21;21.30;67.70
40323;DHT22;26030;51.164;17.100;2022-11-15T16:49:34;21.30;68.80
40323;DHT22;26030;51.164;17.100;2022-11-15T16:54:55;21.20;69.10
40323;DHT22;26030;51.164;17.100;2022-11-15T17:00:08;21.20;68.90
40323;DHT22;26030;51.164;17.100;2022-11-15T17:05:24;21.20;68.80
40323;DHT22;26030;51.164;17.100;2022-11-15T17:10:42;21.20;69.10
40323;DHT22;26030;51.164;17.100;2022-11-15T17:16:08;21.20;69.40
40323;DHT22;26030;51.164;17.100;2022-11-15T17:21:42;21.20;70.20
40323;DHT22;26030;51.164;17.100;2022-11-15T17:26:59;21.20;70.30
40323;DHT22;26030;51.164;17.100;2022-11-15T17:32:09;21.20;70.00
40323;DHT22;26030;51.164;17.100;2022-11-15T17:37:18;21.10;70.30
40323;DHT22;26030;51.164;17.100;2022-11-15T17:42:34;21.20;69.40
40323;DHT22;26030;51.164;17.100;2022-11-15T17:47:46;21.20;69.30
40323;DHT22;26030;51.164;17.100;2022-11-15T17:52:51;21.20;70.10
40323;DHT22;26030;51.164;17.100;2022-11-15T17:58:08;21.20;70.80
40323;DHT22;26030;51.164;17.100;2022-11-15T18:03:18;21.20;70.70
40323;DHT22;26030;51.164;17.100;2022-11-15T18:08:31;21.20;70.40
40323;DHT22;26030;51.164;17.100;2022-11-15T18:13:40;21.10;70.20
40323;DHT22;26030;51.164;17.100;2022-11-15T18:18:54;21.10;70.00
40323;DHT22;26030;51.164;17.100;2022-11-15T18:23:58;21.20;69.80
40323;DHT22;26030;51.164;17.100;2022-11-15T18:29:03;21.10;70.10
40323;DHT22;26030;51.164;17.100;2022-11-15T18:34:08;21.10;69.70
40323;DHT22;26030;51.164;17.100;2022-11-15T18:39:21;21.20;69.70
40323;DHT22;26030;51.164;17.100;2022-11-15T18:44:32;21.10;70.50
40323;DHT22;26030;51.164;17.100;2022-11-15T18:49:51;21.10;70.00
40323;DHT22;26030;51.164;17.100;2022-11-15T18:55:23;21.00;70.50
40323;DHT22;26030;51.164;17.100;2022-11-15T19:00:35;21.10;73.90
40323;DHT22;26030;51.164;17.100;2022-11-15T19:05:59;21.10;74.00
40323;DHT22;26030;51.164;17.100;2022-11-15T19:11:16;21.10;73.30
40323;DHT22;26030;51.164;17.100;2022-11-15T19:16:24;21.00;72.80
40323;DHT22;26030;51.164;17.100;2022-11-15T19:21:41;21.00;72.90
40323;DHT22;26030;51.164;17.100;2022-11-15T19:26:46;21.00;72.60
40323;DHT22;26030;51.164;17.100;2022-11-15T19:32:00;20.90;72.50
40323;DHT22;26030;51.164;17.100;2022-11-15T19:37:18;20.90;72.70
40323;DHT22;26030;51.164;17.100;2022-11-15T19:42:31;20.90;72.40
40323;DHT22;26030;51.164;17.100;2022-11-15T19:47:40;20.90;71.90
40323;DHT22;26030;51.164;17.100;2022-11-15T19:52:47;20.90;71.70
40323;DHT22;26030;51.164;17.100;2022-11-15T19:57:55;21.00;72.10
40323;DHT22;26030;51.164;17.100;2022-11-15T20:03:07;20.90;71.90
40323;DHT22;26030;51.164;17.100;2022-11-15T20:08:11;20.90;72.60
40323;DHT22;26030;51.164;17.100;2022-11-15T20:13:18;20.90;72.10
40323;DHT22;26030;51.164;17.100;2022-11-15T20:18:29;21.00;71.80
40323;DHT22;26030;51.164;17.100;2022-11-15T20:23:34;20.90;72.00
40323;DHT22;26030;51.164;17.100;2022-11-15T20:28:39;20.90;72.60
40323;DHT22;26030;51.164;17.100;2022-11-15T20:33:53;21.00;72.50
40323;DHT22;26030;51.164;17.100;2022-11-15T20:39:12;20.90;72.40
40323;DHT22;26030;51.164;17.100;2022-11-15T20:44:19;20.90;72.50
40323;DHT22;26030;51.164;17.100;2022-11-15T20:49:33;20.90;71.60
40323;DHT22;26030;51.164;17.100;2022-11-15T20:54:48;20.90;71.80
40323;DHT22;26030;51.164;17.100;2022-11-15T20:59:55;20.90;72.20
40323;DHT22;26030;51.164;17.100;2022-11-15T21:05:11;20.90;72.50
40323;DHT22;26030;51.164;17.100;2022-11-15T21:10:23;20.90;72.70
40323;DHT22;26030;51.164;17.100;2022-11-15T21:15:49;20.90;72.90
40323;DHT22;26030;51.164;17.100;2022-11-15T21:21:29;20.90;73.10
40323;DHT22;26030;51.164;17.100;2022-11-15T21:26:34;20.80;72.80
40323;DHT22;26030;51.164;17.100;2022-11-15T21:31:38;20.80;72.50
40323;DHT22;26030;51.164;17.100;2022-11-15T21:36:53;20.80;72.90
40323;DHT22;26030;51.164;17.100;2022-11-15T21:42:01;20.70;72.90
40323;DHT22;26030;51.164;17.100;2022-11-15T21:47:08;20.60;73.10
40323;DHT22;26030;51.164;17.100;2022-11-15T21:52:13;20.70;74.00
40323;DHT22;26030;51.164;17.100;2022-11-15T21:57:22;20.80;73.70
40323;DHT22;26030;51.164;17.100;2022-11-15T22:08:50;20.60;73.40
40323;DHT22;26030;51.164;17.100;2022-11-15T22:13:55;20.60;73.70
40323;DHT22;26030;51.164;17.100;2022-11-15T22:19:04;20.50;73.80
40323;DHT22;26030;51.164;17.100;2022-11-15T22:24:16;20.50;73.70
40323;DHT22;26030;51.164;17.100;2022-11-15T22:29:21;20.50;74.10
40323;DHT22;26030;51.164;17.100;2022-11-15T22:34:28;20.50;74.00
40323;DHT22;26030;51.164;17.100;2022-11-15T22:39:37;20.40;74.10
40323;DHT22;26030;51.164;17.100;2022-11-15T22:44:44;20.80;73.60
40323;DHT22;26030;51.164;17.100;2022-11-15T22:49:55;21.20;72.70
40323;DHT22;26030;51.164;17.100;2022-11-15T22:55:00;21.50;71.40
40323;DHT22;26030;51.164;17.100;2022-11-15T23:00:16;21.70;70.70
40323;DHT22;26030;51.164;17.100;2022-11-15T23:05:24;21.90;70.20
40323;DHT22;26030;51.164;17.100;2022-11-15T23:10:30;21.90;69.80
40323;DHT22;26030;51.164;17.100;2022-11-15T23:15:59;22.10;69.70
40323;DHT22;26030;51.164;17.100;2022-11-15T23:27:04;22.30;68.50
40323;DHT22;26030;51.164;17.100;2022-11-15T23:32:14;22.40;68.70
40323;DHT22;26030;51.164;17.100;2022-11-15T23:37:38;22.40;69.10
40323;DHT22;26030;51.164;17.100;2022-11-15T23:42:45;22.40;69.40
40323;DHT22;26030;51.164;17.100;2022-11-15T23:47:53;22.50;69.50
40323;DHT22;26030;51.164;17.100;2022-11-15T23:53:04;22.60;69.00
40323;DHT22;26030;51.164;17.100;2022-11-15T23:58:10;22.60;68.70
